Gaschem Phoenix — ELUO6 — position and weather

sailwx.info

Track history (hours):
 
Tides and Currents Weather Stations Pressure Air Temp Water Temp Dewpoint Dewpoint Depression Visibility Wind Speed Wind Dir Waves Ship Positions

Gaschem Phoenix

Last reported at 2016-May-05 11:17 UTC. Time now 2016-May-06 03:37 UTC.
Position N 29°56' E 121°54'.

Length 100 m; draft 5.9 m.

Type: Ship. MMSI: 636090235.

Date/timePositionNaut miles runAvg speedWind from/ knotsBaromVisibWave heightAir tempDewpointWater temp
2016-May-05 11:17N 29°56' E 121°54'0 0.3
2016-May-05 10:34N 29°56' E 121°54'15 7.6
2016-May-05 08:31N 30°11' E 121°47'1 0.7
2016-May-05 07:29N 30°11' E 121°48'6 5.4
2016-May-05 06:27N 30°16' E 121°46'0 0.1
2016-May-05 05:26N 30°16' E 121°46'0 0.1
2016-May-05 04:13N 30°16' E 121°46'0 0.2
2016-May-05 03:32N 30°16' E 121°46'0 0.0
2016-May-05 01:27N 30°16' E 121°46'0 0.0
2016-May-05 00:31N 30°16' E 121°46'0 0.0
2016-May-04 23:32N 30°16' E 121°46'0 0.0
2016-May-04 22:17N 30°16' E 121°46'0 0.1
2016-May-04 21:34N 30°16' E 121°46'0 0.1
2016-May-04 20:33N 30°16' E 121°46'0 0.1
2016-May-04 19:32N 30°16' E 121°46'0 0.0
2016-May-04 18:33N 30°16' E 121°46'0 0.1
2016-May-04 17:28N 30°16' E 121°46'  
2016-Apr-30 09:23N 34°26' E 138°27'64 8.0
2016-Apr-30 01:29N 35°00' E 139°32'1010.3
2016-Apr-30 00:32N 35°04' E 139°43'1010.6
2016-Apr-29 23:33N 35°14' E 139°46'1211.8
2016-Apr-29 22:33N 35°25' E 139°44'6 6.0
2016-Apr-29 21:33N 35°31' E 139°46'0 0.0
2016-Apr-29 01:33N 35°31' E 139°46'4 3.5
2016-Apr-29 00:32N 35°28' E 139°44'0 0.1
2016-Apr-28 23:31N 35°28' E 139°44'0 0.1
2016-Apr-28 22:31N 35°28' E 139°44'4 4.5
2016-Apr-28 21:33N 35°24' E 139°46'10 9.7
2016-Apr-28 20:33N 35°14' E 139°47'10 9.9
2016-Apr-28 19:33N 35°05' E 139°44'11 9.3
2016-Apr-28 18:26N 34°59' E 139°33'8 9.1
2016-Apr-28 17:33N 34°55' E 139°25'53 9.6
2016-Apr-28 12:04N 34°26' E 138°31'178 6.7
2016-Apr-27 09:31N 34°03' E 134°58'1212.4
2016-Apr-27 08:33N 34°14' E 134°58'1414.3
2016-Apr-27 07:33N 34°28' E 135°03'9 9.2
2016-Apr-27 06:33N 34°37' E 134°60'  
Track history (hours):
 
Tides and Currents Weather Stations Pressure Air Temp Water Temp Dewpoint Dewpoint Depression Visibility Wind Speed Wind Dir Waves Ship Positions

Gaschem Phoenix

Last reported at 2016-May-05 11:17 UTC. Time now 2016-May-06 03:37 UTC.
Position N 29°56' E 121°54'.

Length 100 m; draft 5.9 m.

Type: Ship. MMSI: 636090235.

Date/timePositionNaut miles runAvg speedWind from/ knotsBaromVisibWave heightAir tempDewpointWater temp
2016-May-05 11:17N 29°56' E 121°54'0 0.3
2016-May-05 10:34N 29°56' E 121°54'15 7.6
2016-May-05 08:31N 30°11' E 121°47'1 0.7
2016-May-05 07:29N 30°11' E 121°48'6 5.4
2016-May-05 06:27N 30°16' E 121°46'0 0.1
2016-May-05 05:26N 30°16' E 121°46'0 0.1
2016-May-05 04:13N 30°16' E 121°46'0 0.2
2016-May-05 03:32N 30°16' E 121°46'0 0.0
2016-May-05 01:27N 30°16' E 121°46'0 0.0
2016-May-05 00:31N 30°16' E 121°46'0 0.0
2016-May-04 23:32N 30°16' E 121°46'0 0.0
2016-May-04 22:17N 30°16' E 121°46'0 0.1
2016-May-04 21:34N 30°16' E 121°46'0 0.1
2016-May-04 20:33N 30°16' E 121°46'0 0.1
2016-May-04 19:32N 30°16' E 121°46'0 0.0
2016-May-04 18:33N 30°16' E 121°46'0 0.1
2016-May-04 17:28N 30°16' E 121°46'  
2016-Apr-30 09:23N 34°26' E 138°27'64 8.0
2016-Apr-30 01:29N 35°00' E 139°32'1010.3
2016-Apr-30 00:32N 35°04' E 139°43'1010.6
2016-Apr-29 23:33N 35°14' E 139°46'1211.8
2016-Apr-29 22:33N 35°25' E 139°44'6 6.0
2016-Apr-29 21:33N 35°31' E 139°46'0 0.0
2016-Apr-29 01:33N 35°31' E 139°46'4 3.5
2016-Apr-29 00:32N 35°28' E 139°44'0 0.1
2016-Apr-28 23:31N 35°28' E 139°44'0 0.1
2016-Apr-28 22:31N 35°28' E 139°44'4 4.5
2016-Apr-28 21:33N 35°24' E 139°46'10 9.7
2016-Apr-28 20:33N 35°14' E 139°47'10 9.9
2016-Apr-28 19:33N 35°05' E 139°44'11 9.3
2016-Apr-28 18:26N 34°59' E 139°33'8 9.1
2016-Apr-28 17:33N 34°55' E 139°25'53 9.6
2016-Apr-28 12:04N 34°26' E 138°31'178 6.7
2016-Apr-27 09:31N 34°03' E 134°58'1212.4
2016-Apr-27 08:33N 34°14' E 134°58'1414.3
2016-Apr-27 07:33N 34°28' E 135°03'9 9.2
2016-Apr-27 06:33N 34°37' E 134°60'  

Dump ship's entire track history